Main page
METAR-TAF:

METAR-TAF

Airports :

Ponta Delgada, Azores, Portugal

João Paulo II Airport

latitude: 37-44N, longitude: 025-42W, elevation: 71 m

Current weather observation

The report was made 25 minutes ago, at 11:30 UTC
Wind 7 kt from the South/Southwest
Temperature 25°C
Humidity 74%
Pressure 1019 hPa
Visibility 10 km or more
Few clouds at a height of 1800 ft
Scattered clouds at a height of 4500 ft

METAR: LPPD 211130Z 20007KT 9999 FEW018 SCT045 25/20 Q1019

Time: 11:55 (11:55 UTC)

Forecast

The report was made 55 minutes ago, at 11:00 UTC
Forecast valid from 21 at 12 UTC to 22 at 12 UTC
Wind 5 kt from variable directions
Visibility 10 km or more
Scattered clouds at a height of 1800 ft
Temporary
from 21 at 12 UTC to 22 at 12 UTC
Few clouds at a height of 1500 ft
Broken clouds at a height of 3000 ft
Temporary
from 21 at 12 UTC to 21 at 18 UTC
Wind 8 kt from the South/Southwest

TAF: LPPD 211100Z 2112/2212 VRB05KT 9999 SCT018 TEMPO 2112/2212 FEW015 BKN030 TEMPO 2112/2118 21008KT

Weather observations and forecasts of more than 4000 airports (METAR and TAF reports).

The available stations are represented by yellow and red dots on the map.

Hover mouse over dot to see the name of the station.

Then click to see weather observations and forecasts.

To change the map : click on the green buttons with a black cross to zoom in, on the green button with a dash to zoom out, or on the green arrows for adjacent maps.


METAR-TAF: